Time;durP1;ratioP1;P1;durP2;ratioP2;P2;SDS_P1;SDS_P2;PMS_P1;PMS_P2;Temp;Humidity;BMP_temperature;BMP_pressure;BME280_temperature;BME280_humidity;BME280_pressure;Samples;Min_cycle;Max_cycle;Signal;HPM_P1;HPM_P2
2022/06/17 00:00:47;;;;;;;;;;;18.50;95.60;;;;;;5067085;28;19932;-66
2022/06/17 00:03:14;;;;;;;;;;;18.50;95.70;;;;;;5070016;28;20374;-66
2022/06/17 00:05:42;;;;;;;;;;;18.60;95.60;;;;;;5066385;28;19960;-66
2022/06/17 00:08:12;;;;;;;;;;;18.60;95.00;;;;;;5067363;28;19960;-65
2022/06/17 00:10:39;;;;;;;;;;;18.50;95.10;;;;;;5069027;28;19925;-66
2022/06/17 00:13:06;;;;;;;;;;;18.50;94.70;;;;;;5066576;28;19964;-66
2022/06/17 00:15:32;;;;;;;;;;;18.50;94.80;;;;;;5061676;28;20380;-66
2022/06/17 00:17:59;;;;;;;;;;;18.50;95.50;;;;;;5063128;28;20031;-66
2022/06/17 00:20:26;;;;;;;;;;;18.50;95.80;;;;;;5058601;28;19925;-66
2022/06/17 00:22:54;;;;;;;;;;;18.40;95.90;;;;;;5064341;28;19943;-66
2022/06/17 00:25:23;;;;;;;;;;;18.40;96.10;;;;;;5057777;28;20023;-67
2022/06/17 00:27:50;;;;;;;;;;;18.30;96.60;;;;;;5069977;28;19931;-66
2022/06/17 00:30:18;;;;;;;;;;;18.10;96.90;;;;;;5071207;28;20011;-66
2022/06/17 00:32:44;;;;;;;;;;;18.10;96.40;;;;;;5063799;28;20032;-66
2022/06/17 00:35:11;;;;;;;;;;;18.10;96.90;;;;;;5067351;28;20007;-66
2022/06/17 00:37:38;;;;;;;;;;;18.10;96.70;;;;;;5056783;28;19925;-66
2022/06/17 00:40:11;;;;;;;;;;;18.10;96.80;;;;;;5054959;28;20466;-66
2022/06/17 00:42:38;;;;;;;;;;;18.10;97.20;;;;;;5063242;28;20495;-66
2022/06/17 00:45:10;;;;;;;;;;;18.00;97.40;;;;;;5066470;28;20311;-67
2022/06/17 00:47:39;;;;;;;;;;;18.00;97.70;;;;;;5059451;28;19924;-66
2022/06/17 00:50:13;;;;;;;;;;;17.90;98.00;;;;;;5069129;28;19931;-66
2022/06/17 00:52:42;;;;;;;;;;;17.70;98.40;;;;;;5054922;28;20275;-66
2022/06/17 00:55:14;;;;;;;;;;;17.60;99.20;;;;;;5064274;28;20455;-66
2022/06/17 00:57:42;;;;;;;;;;;17.50;99.90;;;;;;5065389;28;19924;-66
2022/06/17 01:00:13;;;;;;;;;;;17.40;99.90;;;;;;5068168;28;19932;-66
2022/06/17 01:02:42;;;;;;;;;;;17.20;99.90;;;;;;5063332;28;19924;-66
2022/06/17 01:05:10;;;;;;;;;;;17.10;99.90;;;;;;5056377;28;19925;-67
2022/06/17 01:07:37;;;;;;;;;;;17.00;99.90;;;;;;5064489;28;19967;-67
2022/06/17 01:10:09;;;;;;;;;;;17.00;99.90;;;;;;5063175;28;20019;-67
2022/06/17 01:12:39;;;;;;;;;;;17.00;99.90;;;;;;5052289;28;19967;-67
2022/06/17 01:15:07;;;;;;;;;;;17.00;99.90;;;;;;5052853;28;20015;-66
2022/06/17 01:17:36;;;;;;;;;;;16.90;99.90;;;;;;5062404;28;20375;-67
2022/06/17 01:20:04;;;;;;;;;;;16.90;99.90;;;;;;5056332;28;20370;-67
2022/06/17 01:22:36;;;;;;;;;;;16.90;99.90;;;;;;5051700;28;20400;-67
2022/06/17 01:25:05;;;;;;;;;;;16.80;99.90;;;;;;5053168;28;19925;-67
2022/06/17 01:27:33;;;;;;;;;;;16.80;99.90;;;;;;5054302;28;20467;-66
2022/06/17 01:30:00;;;;;;;;;;;16.80;99.90;;;;;;5060979;28;19989;-66
2022/06/17 01:32:29;;;;;;;;;;;16.80;99.90;;;;;;5066946;28;20011;-66
2022/06/17 01:34:55;;;;;;;;;;;16.90;99.90;;;;;;5062471;28;19967;-66
2022/06/17 01:37:23;;;;;;;;;;;16.90;99.90;;;;;;5052944;28;20019;-66
2022/06/17 01:39:51;;;;;;;;;;;16.90;99.90;;;;;;5056642;28;19924;-67
2022/06/17 01:42:18;;;;;;;;;;;16.90;99.90;;;;;;5065592;28;19971;-67
2022/06/17 01:44:44;;;;;;;;;;;16.90;99.90;;;;;;5063949;28;19952;-67
2022/06/17 01:47:14;;;;;;;;;;;17.00;99.90;;;;;;5056093;28;20023;-66
2022/06/17 01:49:43;;;;;;;;;;;17.00;99.90;;;;;;5060955;28;19929;-67
2022/06/17 01:52:12;;;;;;;;;;;16.80;99.90;;;;;;5053941;28;19968;-67
2022/06/17 01:54:42;;;;;;;;;;;16.80;99.90;;;;;;5060533;28;19924;-66
2022/06/17 01:57:12;;;;;;;;;;;16.80;99.90;;;;;;5065297;28;20015;-66
2022/06/17 01:59:41;;;;;;;;;;;16.80;99.90;;;;;;5061442;28;19975;-67
2022/06/17 02:02:09;;;;;;;;;;;16.80;99.90;;;;;;5065868;28;20333;-66
2022/06/17 02:04:37;;;;;;;;;;;16.70;99.90;;;;;;5060826;28;20008;-66
2022/06/17 02:07:07;;;;;;;;;;;16.70;99.90;;;;;;5065610;28;19925;-66
2022/06/17 02:09:34;;;;;;;;;;;16.70;99.90;;;;;;5055799;28;19925;-66
2022/06/17 02:12:01;;;;;;;;;;;16.70;99.90;;;;;;5058096;28;19970;-66
2022/06/17 02:14:29;;;;;;;;;;;16.70;99.90;;;;;;5055617;28;19924;-67
2022/06/17 02:16:57;;;;;;;;;;;16.80;99.90;;;;;;5055579;28;20611;-66
2022/06/17 02:19:25;;;;;;;;;;;16.70;99.90;;;;;;5059667;28;19925;-66
2022/06/17 02:21:55;;;;;;;;;;;16.60;99.90;;;;;;5063326;28;20016;-66
2022/06/17 02:24:22;;;;;;;;;;;16.40;99.90;;;;;;5055433;28;20023;-66
2022/06/17 02:26:49;;;;;;;;;;;16.40;99.90;;;;;;5064915;28;20015;-66
2022/06/17 02:29:16;;;;;;;;;;;16.50;99.90;;;;;;5062830;28;20008;-66
2022/06/17 02:31:45;;;;;;;;;;;16.50;99.90;;;;;;5064995;28;20384;-66
2022/06/17 02:34:14;;;;;;;;;;;16.60;99.90;;;;;;5065427;28;20023;-66
2022/06/17 02:36:44;;;;;;;;;;;16.70;99.90;;;;;;5062116;28;20031;-66
2022/06/17 02:39:12;;;;;;;;;;;16.70;99.90;;;;;;5065909;28;19929;-66
2022/06/17 02:41:39;;;;;;;;;;;16.80;99.90;;;;;;5059404;28;19925;-66
2022/06/17 02:44:11;;;;;;;;;;;16.80;99.90;;;;;;5063937;28;20433;-66
2022/06/17 02:46:41;;;;;;;;;;;16.80;99.90;;;;;;5065152;28;19994;-65
2022/06/17 02:49:13;;;;;;;;;;;16.80;99.90;;;;;;5056184;28;20008;-66
2022/06/17 02:51:40;;;;;;;;;;;16.70;99.90;;;;;;5071803;28;19924;-65
2022/06/17 02:54:08;;;;;;;;;;;16.60;99.90;;;;;;5067205;28;19982;-65
2022/06/17 02:56:36;;;;;;;;;;;16.60;99.90;;;;;;5072373;28;20015;-65
2022/06/17 02:59:06;;;;;;;;;;;16.60;99.90;;;;;;5062160;28;20394;-65
2022/06/17 03:01:34;;;;;;;;;;;16.70;99.90;;;;;;5062575;28;19982;-65
2022/06/17 03:04:01;;;;;;;;;;;16.80;99.90;;;;;;5056086;28;20015;-65
2022/06/17 03:06:32;;;;;;;;;;;16.80;99.90;;;;;;5060890;28;20448;-66
2022/06/17 03:09:01;;;;;;;;;;;16.90;99.90;;;;;;5072328;28;20016;-65
2022/06/17 03:11:27;;;;;;;;;;;16.90;99.90;;;;;;5058030;28;20023;-65
2022/06/17 03:13:55;;;;;;;;;;;17.10;99.90;;;;;;5061912;28;20368;-65
2022/06/17 03:16:23;;;;;;;;;;;17.20;99.90;;;;;;5065761;28;20387;-65
2022/06/17 03:18:50;;;;;;;;;;;17.20;99.90;;;;;;5073400;28;19924;-65
2022/06/17 03:21:20;;;;;;;;;;;17.20;99.90;;;;;;5056847;28;20453;-65
2022/06/17 03:23:51;;;;;;;;;;;17.10;99.90;;;;;;5058162;28;19931;-65
2022/06/17 03:26:21;;;;;;;;;;;17.20;99.90;;;;;;5053235;28;19924;-65
2022/06/17 03:28:49;;;;;;;;;;;17.20;99.90;;;;;;5059496;28;19955;-65
2022/06/17 03:31:19;;;;;;;;;;;17.20;99.90;;;;;;5065772;28;20008;-65
2022/06/17 03:33:48;;;;;;;;;;;17.20;99.70;;;;;;5062910;28;19932;-66
2022/06/17 03:36:17;;;;;;;;;;;17.20;99.90;;;;;;5068412;28;20224;-65
2022/06/17 03:38:45;;;;;;;;;;;17.20;99.90;;;;;;5057497;28;20027;-65
2022/06/17 03:41:17;;;;;;;;;;;17.20;99.90;;;;;;5068094;28;19971;-65
2022/06/17 03:43:46;;;;;;;;;;;17.20;99.90;;;;;;5067151;28;19968;-67
2022/06/17 03:46:13;;;;;;;;;;;17.20;99.90;;;;;;5068927;28;20127;-65
2022/06/17 03:48:41;;;;;;;;;;;17.20;99.90;;;;;;5062825;28;19935;-65
2022/06/17 03:51:11;;;;;;;;;;;17.20;99.40;;;;;;5063028;28;19972;-65
2022/06/17 03:53:38;;;;;;;;;;;17.20;99.40;;;;;;5069750;28;19979;-66
2022/06/17 03:56:07;;;;;;;;;;;17.20;99.30;;;;;;5069781;28;19967;-66
2022/06/17 03:58:37;;;;;;;;;;;17.20;99.40;;;;;;5068047;28;19924;-65
2022/06/17 04:01:06;;;;;;;;;;;17.10;99.20;;;;;;5067239;28;20011;-66
2022/06/17 04:03:34;;;;;;;;;;;17.10;99.00;;;;;;5071560;28;19950;-65
2022/06/17 04:06:03;;;;;;;;;;;17.10;98.90;;;;;;5068903;28;19932;-66
2022/06/17 04:08:30;;;;;;;;;;;17.10;98.70;;;;;;5058324;28;20032;-66
2022/06/17 04:10:57;;;;;;;;;;;17.10;98.90;;;;;;5067245;28;19925;-66
2022/06/17 04:13:27;;;;;;;;;;;17.10;98.80;;;;;;5061938;28;19925;-66
2022/06/17 04:15:59;;;;;;;;;;;17.10;98.70;;;;;;5070984;28;19951;-66
2022/06/17 04:18:26;;;;;;;;;;;17.20;98.60;;;;;;5065100;28;19931;-66
2022/06/17 04:20:54;;;;;;;;;;;17.30;98.40;;;;;;5055904;28;20458;-66
2022/06/17 04:23:22;;;;;;;;;;;17.50;98.20;;;;;;5069895;28;20323;-66
2022/06/17 04:25:51;;;;;;;;;;;17.60;97.70;;;;;;5067489;28;19972;-66
2022/06/17 04:28:20;;;;;;;;;;;17.70;97.00;;;;;;5071660;28;20030;-66
2022/06/17 04:30:48;;;;;;;;;;;17.90;96.50;;;;;;5068036;28;19932;-66
2022/06/17 04:33:27;;;;;;;;;;;18.00;96.10;;;;;;5065976;28;20348;-66
2022/06/17 04:35:58;;;;;;;;;;;18.10;95.40;;;;;;5068130;28;19978;-66
2022/06/17 04:38:25;;;;;;;;;;;18.30;95.20;;;;;;5065697;28;20013;-67
2022/06/17 04:40:55;;;;;;;;;;;18.30;95.00;;;;;;5062648;28;19931;-66
2022/06/17 04:43:26;;;;;;;;;;;18.40;94.80;;;;;;5069182;28;19932;-66
2022/06/17 04:45:53;;;;;;;;;;;18.50;95.00;;;;;;5067935;28;20015;-66
2022/06/17 04:48:20;;;;;;;;;;;18.50;95.10;;;;;;5054383;28;20020;-66
2022/06/17 04:50:48;;;;;;;;;;;18.40;95.00;;;;;;5063544;28;19925;-65
2022/06/17 04:53:16;;;;;;;;;;;18.30;95.50;;;;;;5062245;28;20369;-65
2022/06/17 04:55:45;;;;;;;;;;;18.20;96.00;;;;;;5067716;28;20077;-65
2022/06/17 04:58:12;;;;;;;;;;;18.20;96.50;;;;;;5067441;28;19963;-64
2022/06/17 05:00:39;;;;;;;;;;;18.40;96.10;;;;;;5059820;28;20015;-66
2022/06/17 05:03:05;;;;;;;;;;;18.50;95.60;;;;;;5060935;28;19963;-66
2022/06/17 05:05:35;;;;;;;;;;;18.60;94.70;;;;;;5070079;28;19924;-66
2022/06/17 05:08:04;;;;;;;;;;;18.60;94.40;;;;;;5060133;28;20384;-68
2022/06/17 05:10:34;;;;;;;;;;;18.60;95.20;;;;;;5054777;28;19967;-67
2022/06/17 05:13:03;;;;;;;;;;;18.50;96.20;;;;;;5059513;28;19964;-66
2022/06/17 05:15:30;;;;;;;;;;;18.30;95.90;;;;;;5064776;28;19932;-67
2022/06/17 05:17:58;;;;;;;;;;;18.30;96.00;;;;;;5059512;28;20000;-67
2022/06/17 05:20:25;;;;;;;;;;;18.30;95.90;;;;;;5064613;28;19924;-68
2022/06/17 05:22:54;;;;;;;;;;;18.40;95.70;;;;;;5062939;28;20352;-68
2022/06/17 05:25:24;;;;;;;;;;;18.50;95.40;;;;;;5062297;28;20019;-68
2022/06/17 05:27:53;;;;;;;;;;;18.60;94.90;;;;;;5068155;28;20369;-69
2022/06/17 05:30:20;;;;;;;;;;;18.80;95.50;;;;;;5057831;28;20375;-67
2022/06/17 05:32:48;;;;;;;;;;;18.90;95.00;;;;;;5061754;28;20011;-67
2022/06/17 05:35:15;;;;;;;;;;;19.00;94.20;;;;;;5069272;28;19932;-68
2022/06/17 05:37:42;;;;;;;;;;;19.10;93.90;;;;;;5067101;28;19955;-68
2022/06/17 05:40:09;;;;;;;;;;;19.30;93.50;;;;;;5065328;28;20300;-67
2022/06/17 05:42:37;;;;;;;;;;;19.40;92.80;;;;;;5059893;28;20003;-67
2022/06/17 05:45:04;;;;;;;;;;;19.60;92.80;;;;;;5067679;28;20014;-68
2022/06/17 05:47:31;;;;;;;;;;;19.80;92.70;;;;;;5065012;28;19936;-68
2022/06/17 05:49:58;;;;;;;;;;;20.00;92.10;;;;;;5056311;28;20381;-68
2022/06/17 05:52:25;;;;;;;;;;;20.20;91.60;;;;;;5051184;28;19931;-68
2022/06/17 05:54:51;;;;;;;;;;;20.30;90.50;;;;;;5064761;28;19994;-68
2022/06/17 05:57:20;;;;;;;;;;;20.40;90.30;;;;;;5066643;28;19982;-68
2022/06/17 05:59:48;;;;;;;;;;;20.60;90.00;;;;;;5063629;28;20023;-68
2022/06/17 06:02:15;;;;;;;;;;;20.80;88.60;;;;;;5068024;28;20003;-68
2022/06/17 06:04:41;;;;;;;;;;;21.00;87.20;;;;;;5066327;28;19931;-68
2022/06/17 06:07:09;;;;;;;;;;;21.10;85.70;;;;;;5058884;28;20362;-68
2022/06/17 06:09:35;;;;;;;;;;;21.20;86.10;;;;;;5062670;28;19975;-68
2022/06/17 06:12:02;;;;;;;;;;;22.10;85.70;;;;;;5064842;28;20394;-68
2022/06/17 06:14:29;;;;;;;;;;;23.40;80.10;;;;;;5069116;28;19968;-69
2022/06/17 06:16:57;;;;;;;;;;;24.90;74.20;;;;;;5069945;28;20022;-69
2022/06/17 06:19:23;;;;;;;;;;;26.70;62.50;;;;;;5071761;28;20011;-69
2022/06/17 06:21:50;;;;;;;;;;;27.90;49.60;;;;;;5076466;28;20020;-69
2022/06/17 06:24:17;;;;;;;;;;;28.30;43.60;;;;;;5070721;28;20015;-69
2022/06/17 06:26:44;;;;;;;;;;;29.30;38.50;;;;;;5074279;28;19951;-69
2022/06/17 06:29:11;;;;;;;;;;;30.00;33.90;;;;;;5064678;28;19988;-69
2022/06/17 06:31:39;;;;;;;;;;;30.30;30.40;;;;;;5071459;28;19947;-67
2022/06/17 06:34:07;;;;;;;;;;;30.30;29.30;;;;;;5069164;28;20003;-68
2022/06/17 06:36:33;;;;;;;;;;;30.30;27.20;;;;;;5049241;28;19932;-68
2022/06/17 06:39:00;;;;;;;;;;;30.10;26.70;;;;;;5058838;28;19928;-67
2022/06/17 06:41:27;;;;;;;;;;;30.00;26.50;;;;;;5069369;28;20017;-67
2022/06/17 06:43:53;;;;;;;;;;;30.70;24.80;;;;;;5065277;28;20011;-68
2022/06/17 06:46:22;;;;;;;;;;;30.60;24.10;;;;;;5065015;28;19932;-68
2022/06/17 06:48:49;;;;;;;;;;;30.40;23.10;;;;;;5060676;28;20359;-68
2022/06/17 06:51:18;;;;;;;;;;;29.50;23.90;;;;;;5057954;28;19954;-68
2022/06/17 06:53:45;;;;;;;;;;;29.40;24.30;;;;;;5058838;28;19925;-68
2022/06/17 06:56:12;;;;;;;;;;;29.50;23.30;;;;;;5059165;28;20007;-68
2022/06/17 06:58:39;;;;;;;;;;;29.70;22.80;;;;;;5056762;28;20012;-68
2022/06/17 07:01:06;;;;;;;;;;;28.60;22.70;;;;;;5062141;28;19928;-69
2022/06/17 07:03:33;;;;;;;;;;;28.40;24.20;;;;;;5069632;28;20371;-68
2022/06/17 07:06:01;;;;;;;;;;;29.40;23.30;;;;;;5060379;28;20019;-68
2022/06/17 07:08:34;;;;;;;;;;;30.40;21.60;;;;;;5063604;28;20027;-68
2022/06/17 07:11:01;;;;;;;;;;;30.60;20.30;;;;;;5063829;28;20306;-68
2022/06/17 07:13:28;;;;;;;;;;;31.00;20.30;;;;;;5064936;28;19924;-68
2022/06/17 07:15:55;;;;;;;;;;;31.40;18.50;;;;;;5062386;28;19964;-68
2022/06/17 07:18:22;;;;;;;;;;;31.70;17.90;;;;;;5063177;28;19929;-69
2022/06/17 07:20:50;;;;;;;;;;;31.20;17.60;;;;;;5066035;28;20447;-68
2022/06/17 07:23:18;;;;;;;;;;;32.40;17.20;;;;;;5062578;28;19924;-68
2022/06/17 07:25:47;;;;;;;;;;;32.70;15.90;;;;;;5065682;28;20035;-68
2022/06/17 07:28:14;;;;;;;;;;;32.70;15.30;;;;;;5062300;28;20059;-68
2022/06/17 07:30:41;;;;;;;;;;;33.00;14.10;;;;;;5061152;28;20369;-68
2022/06/17 07:33:10;;;;;;;;;;;32.40;14.30;;;;;;5058499;28;20058;-68
2022/06/17 07:35:37;;;;;;;;;;;32.60;14.40;;;;;;5058467;28;20019;-69
2022/06/17 07:40:49;;;;;;;;;;;33.00;13.10;;;;;;5062152;28;19955;-67
2022/06/17 07:43:16;;;;;;;;;;;33.60;12.10;;;;;;5056018;28;19932;-68
2022/06/17 07:45:42;;;;;;;;;;;33.70;11.70;;;;;;5059657;28;19968;-69
2022/06/17 07:48:10;;;;;;;;;;;33.60;11.50;;;;;;5064780;28;20027;-68
2022/06/17 07:50:37;;;;;;;;;;;33.50;11.30;;;;;;5067237;28;20443;-68
2022/06/17 07:53:04;;;;;;;;;;;33.50;11.20;;;;;;5062220;28;19924;-69
2022/06/17 07:55:31;;;;;;;;;;;;;;;;;;5062087;28;20446;-69
2022/06/17 07:57:59;;;;;;;;;;;34.20;9.30;;;;;;5061878;28;19982;-68
2022/06/17 08:00:27;;;;;;;;;;;34.20;9.30;;;;;;5063553;28;20015;-70
2022/06/17 08:02:53;;;;;;;;;;;34.40;9.00;;;;;;5059746;28;20012;-69
2022/06/17 08:05:21;;;;;;;;;;;34.90;9.00;;;;;;5054616;28;20022;-69
2022/06/17 08:07:48;;;;;;;;;;;34.80;7.50;;;;;;5057853;28;20367;-69
2022/06/17 08:10:17;;;;;;;;;;;33.60;8.50;;;;;;5053686;28;19940;-69
2022/06/17 08:12:44;;;;;;;;;;;33.10;9.70;;;;;;5056441;28;20008;-69
2022/06/17 08:15:13;;;;;;;;;;;33.90;8.50;;;;;;5053276;28;19924;-68
2022/06/17 08:17:40;;;;;;;;;;;34.60;7.90;;;;;;5054445;28;19931;-68
2022/06/17 08:20:09;;;;;;;;;;;35.30;7.00;;;;;;5060609;28;19924;-68
2022/06/17 08:22:36;;;;;;;;;;;35.10;6.70;;;;;;5061795;28;20300;-67
2022/06/17 08:25:03;;;;;;;;;;;34.60;7.50;;;;;;5062113;28;19931;-69
2022/06/17 08:27:30;;;;;;;;;;;34.80;6.80;;;;;;5064794;28;20007;-68
2022/06/17 08:29:57;;;;;;;;;;;34.70;6.90;;;;;;5057737;28;20024;-67
2022/06/17 08:35:10;;;;;;;;;;;33.90;6.80;;;;;;5059427;28;20390;-68
2022/06/17 08:37:36;;;;;;;;;;;33.50;7.30;;;;;;5057081;28;19932;-69
2022/06/17 08:40:06;;;;;;;;;;;33.10;8.20;;;;;;5062979;28;19960;-68
2022/06/17 08:42:39;;;;;;;;;;;33.50;7.50;;;;;;5058411;28;19947;-69
2022/06/17 08:45:11;;;;;;;;;;;33.70;6.80;;;;;;5062329;28;19931;-68
2022/06/17 08:47:55;;;;;;;;;;;33.60;6.40;;;;;;5067884;28;20015;-69
2022/06/17 08:50:32;;;;;;;;;;;33.10;6.80;;;;;;5064635;28;19958;-68
2022/06/17 08:53:11;;;;;;;;;;;32.80;7.40;;;;;;5070100;28;19924;-68
2022/06/17 08:55:41;;;;;;;;;;;32.60;7.90;;;;;;5070155;28;20020;-68
2022/06/17 08:58:13;;;;;;;;;;;33.60;7.40;;;;;;5052721;28;20383;-67
2022/06/17 09:00:43;;;;;;;;;;;33.40;6.90;;;;;;5067218;28;19924;-68
2022/06/17 09:03:26;;;;;;;;;;;32.90;8.30;;;;;;5076057;28;19931;-69
2022/06/17 09:06:02;;;;;;;;;;;33.30;6.90;;;;;;5087704;28;19931;-68
2022/06/17 09:08:41;;;;;;;;;;;32.90;7.80;;;;;;5072592;28;19963;-69
2022/06/17 09:11:15;;;;;;;;;;;33.50;7.60;;;;;;5072117;28;20386;-68
2022/06/17 09:13:47;;;;;;;;;;;32.90;7.80;;;;;;5072170;28;20042;-67
2022/06/17 09:16:16;;;;;;;;;;;33.60;7.40;;;;;;5068052;28;19968;-68
2022/06/17 09:18:47;;;;;;;;;;;34.50;6.50;;;;;;5071055;28;19971;-68
2022/06/17 09:21:15;;;;;;;;;;;34.90;5.90;;;;;;5072378;28;19924;-68
2022/06/17 09:23:42;;;;;;;;;;;34.10;5.90;;;;;;5064933;28;19994;-68
2022/06/17 09:26:11;;;;;;;;;;;33.80;5.00;;;;;;5067258;28;20027;-67
2022/06/17 09:28:39;;;;;;;;;;;34.00;5.00;;;;;;5071072;28;19931;-67
2022/06/17 09:31:10;;;;;;;;;;;34.10;4.20;;;;;;5072220;28;20019;-67
2022/06/17 09:33:40;;;;;;;;;;;34.20;4.10;;;;;;5069710;28;19959;-67
2022/06/17 09:36:12;;;;;;;;;;;33.40;5.00;;;;;;5061418;28;20020;-67
2022/06/17 09:38:41;;;;;;;;;;;33.40;5.60;;;;;;5063265;28;19936;-68
2022/06/17 09:41:10;;;;;;;;;;;33.60;5.40;;;;;;5068214;28;19930;-68
2022/06/17 09:43:41;;;;;;;;;;;34.00;4.40;;;;;;5068732;28;20019;-67
2022/06/17 09:46:11;;;;;;;;;;;34.40;2.60;;;;;;5069834;28;19924;-67
2022/06/17 09:48:40;;;;;;;;;;;33.50;4.30;;;;;;5071036;28;19925;-67
2022/06/17 09:51:11;;;;;;;;;;;33.20;3.60;;;;;;5069864;28;19925;-67
2022/06/17 09:53:40;;;;;;;;;;;33.20;3.70;;;;;;5069670;28;20354;-68
2022/06/17 09:56:10;;;;;;;;;;;33.20;4.30;;;;;;5069204;28;20004;-68
2022/06/17 09:58:39;;;;;;;;;;;33.00;5.00;;;;;;5069034;28;19925;-67
2022/06/17 10:01:08;;;;;;;;;;;33.00;5.10;;;;;;5053004;28;19941;-68
2022/06/17 10:03:35;;;;;;;;;;;33.70;5.10;;;;;;5064851;28;20395;-68
2022/06/17 10:06:10;;;;;;;;;;;33.60;4.70;;;;;;5067543;28;19928;-68
2022/06/17 10:08:43;;;;;;;;;;;33.20;4.70;;;;;;5062949;28;20394;-69
2022/06/17 10:11:13;;;;;;;;;;;32.80;4.90;;;;;;5070289;28;20474;-68
2022/06/17 10:13:44;;;;;;;;;;;32.80;4.00;;;;;;5055826;28;20023;-68
2022/06/17 10:19:14;;;;;;;;;;;31.00;5.60;;;;;;5057643;28;19932;-70
2022/06/17 10:21:50;;;;;;;;;;;30.60;5.70;;;;;;5057299;28;19924;-69
2022/06/17 10:24:20;;;;;;;;;;;29.90;6.70;;;;;;5054883;28;19925;-67
2022/06/17 10:26:55;;;;;;;;;;;29.80;7.20;;;;;;5062659;28;20071;-67
2022/06/17 10:29:31;;;;;;;;;;;29.70;6.50;;;;;;5059235;28;19993;-67
2022/06/17 10:31:59;;;;;;;;;;;29.50;6.70;;;;;;5061889;28;19987;-67
2022/06/17 10:34:28;;;;;;;;;;;29.50;6.50;;;;;;5058886;28;20011;-68
2022/06/17 10:36:56;;;;;;;;;;;29.60;7.20;;;;;;5054266;28;19932;-68
2022/06/17 10:39:26;;;;;;;;;;;29.60;6.50;;;;;;5063934;28;19964;-67
2022/06/17 10:41:53;;;;;;;;;;;29.40;7.90;;;;;;5061117;28;19925;-67
2022/06/17 10:44:23;;;;;;;;;;;29.50;7.50;;;;;;5062983;28;19924;-67
2022/06/17 10:46:54;;;;;;;;;;;29.40;7.10;;;;;;5062570;28;20425;-68
2022/06/17 10:49:26;;;;;;;;;;;29.50;7.90;;;;;;5057403;28;19925;-67
2022/06/17 10:51:54;;;;;;;;;;;29.70;7.60;;;;;;5060233;28;19936;-67
2022/06/17 10:54:23;;;;;;;;;;;29.80;7.80;;;;;;5059491;28;19972;-67
2022/06/17 10:56:54;;;;;;;;;;;29.60;8.70;;;;;;5059046;28;19928;-67
2022/06/17 10:59:36;;;;;;;;;;;29.70;8.00;;;;;;5065338;28;20036;-67
2022/06/17 11:02:02;;;;;;;;;;;29.60;7.00;;;;;;5063328;28;20273;-69
2022/06/17 11:04:30;;;;;;;;;;;29.40;7.90;;;;;;5063640;28;20031;-68
2022/06/17 11:07:00;;;;;;;;;;;29.40;9.00;;;;;;5064479;28;20039;-68
2022/06/17 11:09:28;;;;;;;;;;;29.70;8.80;;;;;;5063955;28;19935;-67
2022/06/17 11:12:05;;;;;;;;;;;29.60;7.10;;;;;;5058373;28;19997;-67
2022/06/17 11:14:36;;;;;;;;;;;29.50;7.10;;;;;;5064583;28;20027;-68
2022/06/17 11:17:05;;;;;;;;;;;29.70;7.20;;;;;;5062457;28;19986;-71
2022/06/17 11:19:32;;;;;;;;;;;29.70;7.10;;;;;;5057466;28;20055;-67
2022/06/17 11:22:00;;;;;;;;;;;29.50;7.90;;;;;;5059676;28;20023;-67
2022/06/17 11:24:28;;;;;;;;;;;29.40;8.10;;;;;;5057000;28;19931;-68
2022/06/17 11:27:08;;;;;;;;;;;29.50;8.90;;;;;;5050903;28;19948;-68
2022/06/17 11:29:37;;;;;;;;;;;29.60;7.90;;;;;;5055797;28;20055;-67
2022/06/17 11:32:12;;;;;;;;;;;29.50;8.70;;;;;;5063124;28;19934;-66
2022/06/17 11:34:46;;;;;;;;;;;29.70;9.30;;;;;;5063873;28;20210;-66
2022/06/17 11:37:16;;;;;;;;;;;29.80;7.60;;;;;;5070270;28;20494;-67
2022/06/17 11:39:44;;;;;;;;;;;29.70;8.90;;;;;;5062237;28;19925;-68
2022/06/17 11:42:17;;;;;;;;;;;29.90;9.20;;;;;;5059958;28;20393;-68
2022/06/17 11:44:49;;;;;;;;;;;30.10;8.80;;;;;;5057962;28;19928;-67
2022/06/17 11:47:19;;;;;;;;;;;30.00;7.40;;;;;;5055401;28;20025;-67
2022/06/17 11:49:46;;;;;;;;;;;30.10;8.60;;;;;;5056506;28;20467;-67
2022/06/17 11:52:24;;;;;;;;;;;29.80;8.90;;;;;;5059773;28;19942;-67
2022/06/17 11:54:52;;;;;;;;;;;29.80;9.10;;;;;;5060209;28;20284;-67
2022/06/17 11:57:22;;;;;;;;;;;29.80;8.80;;;;;;5061758;28;20009;-67
2022/06/17 11:59:50;;;;;;;;;;;30.00;9.20;;;;;;5061263;28;19947;-67
2022/06/17 12:02:17;;;;;;;;;;;30.10;9.10;;;;;;5059348;28;19965;-67
2022/06/17 12:04:45;;;;;;;;;;;29.80;9.10;;;;;;5051126;28;20015;-67
2022/06/17 12:07:34;;;;;;;;;;;29.80;10.10;;;;;;5059942;28;20350;-67
2022/06/17 12:10:05;;;;;;;;;;;30.00;9.90;;;;;;5059220;28;20510;-66
2022/06/17 12:12:34;;;;;;;;;;;29.80;10.00;;;;;;5063925;28;19939;-67
2022/06/17 12:15:02;;;;;;;;;;;29.80;10.00;;;;;;5060929;28;20368;-67
2022/06/17 12:17:30;;;;;;;;;;;29.90;10.10;;;;;;5059500;28;20156;-69
2022/06/17 12:19:57;;;;;;;;;;;30.10;10.20;;;;;;5055967;28;19978;-67
2022/06/17 12:22:27;;;;;;;;;;;30.30;10.60;;;;;;5057798;28;19994;-68
2022/06/17 12:25:00;;;;;;;;;;;30.60;10.00;;;;;;5054491;28;19982;-68
2022/06/17 12:27:28;;;;;;;;;;;30.50;9.80;;;;;;5055749;28;19963;-69
2022/06/17 12:30:01;;;;;;;;;;;30.50;10.50;;;;;;5055180;28;19933;-67
2022/06/17 12:32:30;;;;;;;;;;;30.80;10.20;;;;;;5056640;28;19931;-67
2022/06/17 12:35:03;;;;;;;;;;;31.00;9.30;;;;;;5056246;28;20308;-67
2022/06/17 12:37:35;;;;;;;;;;;31.10;9.60;;;;;;5058748;28;19995;-68
2022/06/17 12:40:06;;;;;;;;;;;30.80;9.60;;;;;;5051461;28;21723;-68
2022/06/17 12:42:34;;;;;;;;;;;30.70;10.20;;;;;;5050842;28;19936;-68
2022/06/17 12:45:10;;;;;;;;;;;30.40;9.70;;;;;;5060354;28;19978;-68
2022/06/17 12:47:42;;;;;;;;;;;30.40;9.90;;;;;;5062662;28;19938;-68
2022/06/17 12:53:14;;;;;;;;;;;30.70;10.10;;;;;;5056864;28;20390;-68
2022/06/17 12:55:49;;;;;;;;;;;30.90;9.20;;;;;;5058482;28;20044;-68
2022/06/17 12:58:23;;;;;;;;;;;30.90;8.70;;;;;;5056380;28;20038;-68
2022/06/17 13:00:53;;;;;;;;;;;30.70;9.10;;;;;;5062141;28;19960;-68
2022/06/17 13:03:41;;;;;;;;;;;30.80;8.80;;;;;;5053787;28;20326;-67
2022/06/17 13:06:13;;;;;;;;;;;30.70;8.70;;;;;;5054079;28;19943;-68
2022/06/17 13:08:43;;;;;;;;;;;30.60;7.90;;;;;;5054194;28;20014;-67
2022/06/17 13:11:13;;;;;;;;;;;30.10;8.10;;;;;;5049852;28;20442;-68
2022/06/17 13:13:58;;;;;;;;;;;30.80;8.30;;;;;;5059814;28;20007;-65
2022/06/17 13:16:28;;;;;;;;;;;31.10;8.30;;;;;;5058669;28;20023;-66
2022/06/17 13:19:00;;;;;;;;;;;31.30;8.60;;;;;;5057743;28;19946;-66
2022/06/17 13:21:32;;;;;;;;;;;31.40;8.20;;;;;;5058690;28;20272;-67
2022/06/17 13:24:03;;;;;;;;;;;31.60;7.80;;;;;;5062120;28;19924;-68
2022/06/17 13:26:32;;;;;;;;;;;31.40;6.90;;;;;;5057835;28;20015;-69
2022/06/17 13:29:03;;;;;;;;;;;31.10;7.80;;;;;;5059449;28;19935;-71
2022/06/17 13:31:37;;;;;;;;;;;31.00;8.30;;;;;;5059515;28;19925;-71
2022/06/17 13:34:05;;;;;;;;;;;31.00;8.20;;;;;;5056881;28;20268;-69
2022/06/17 13:36:34;;;;;;;;;;;30.90;9.30;;;;;;5056829;28;20031;-69
2022/06/17 13:39:04;;;;;;;;;;;31.10;10.00;;;;;;5053414;28;19924;-67
2022/06/17 13:41:34;;;;;;;;;;;31.10;9.60;;;;;;5048474;28;21536;-68
2022/06/17 13:44:05;;;;;;;;;;;31.10;10.10;;;;;;5054650;28;19928;-68
2022/06/17 13:46:34;;;;;;;;;;;31.20;8.90;;;;;;5052579;28;20007;-68
2022/06/17 13:49:04;;;;;;;;;;;31.20;8.20;;;;;;5052416;28;19933;-67
2022/06/17 13:51:35;;;;;;;;;;;31.40;9.30;;;;;;5056212;28;19928;-68
2022/06/17 13:54:06;;;;;;;;;;;31.40;8.60;;;;;;5055668;28;20001;-68
2022/06/17 13:56:38;;;;;;;;;;;31.20;8.40;;;;;;5055048;28;19931;-66
2022/06/17 13:59:06;;;;;;;;;;;31.00;9.00;;;;;;5059227;28;20033;-67
2022/06/17 14:01:45;;;;;;;;;;;31.00;8.60;;;;;;5057195;28;19963;-67
2022/06/17 14:04:22;;;;;;;;;;;31.10;8.80;;;;;;5059905;28;19931;-68
2022/06/17 14:07:00;;;;;;;;;;;31.00;9.00;;;;;;5058173;28;20008;-69
2022/06/17 14:09:29;;;;;;;;;;;31.00;9.20;;;;;;5060648;28;20847;-69
2022/06/17 14:11:56;;;;;;;;;;;31.00;9.40;;;;;;5061185;28;19928;-68
2022/06/17 14:14:37;;;;;;;;;;;31.20;9.40;;;;;;5059843;28;19924;-68
2022/06/17 14:17:11;;;;;;;;;;;31.10;9.40;;;;;;5056692;28;19932;-68
2022/06/17 14:19:41;;;;;;;;;;;31.20;9.10;;;;;;5057619;28;19932;-69
2022/06/17 14:22:14;;;;;;;;;;;31.00;7.90;;;;;;5061771;28;19928;-68
2022/06/17 14:24:56;;;;;;;;;;;31.20;8.00;;;;;;5064190;28;20028;-67
2022/06/17 14:27:39;;;;;;;;;;;31.20;8.00;;;;;;5064905;28;19924;-68
2022/06/17 14:30:31;;;;;;;;;;;31.00;8.10;;;;;;5057564;28;20027;-69
2022/06/17 14:33:00;;;;;;;;;;;31.00;8.10;;;;;;5062388;28;20015;-67
2022/06/17 14:35:29;;;;;;;;;;;31.00;8.30;;;;;;5063798;28;19932;-70
2022/06/17 14:38:06;;;;;;;;;;;31.20;8.40;;;;;;5066543;28;20629;-68
2022/06/17 14:42:01;;;;;;;;;;;31.10;8.20;;;;;;5070499;28;20032;-68
2022/06/17 14:43:22;;;;;;;;;;;31.10;8.40;;;;;;5062346;28;20297;-67
2022/06/17 14:45:54;;;;;;;;;;;31.30;8.50;;;;;;5055256;28;20015;-68
2022/06/17 14:48:27;;;;;;;;;;;31.10;7.80;;;;;;5063914;28;19932;-68